Pilot Knob, New York
Current Conditions -  °F | °C
As of 6:06 AM on Friday 28 Nov 2014 (Local Time) from KGFL Reporting Station
Haze Haze  
Wind Chill: 23°   Ceiling: 4800
Heat Index: 23°   Visibility: 6mi
Dew Point: 21°   Wind: 3mph
Humidity: 92%   Direction: 130°SE
Pressure: 30.07"   Gusts: NA
Location:  43.5149°N, 73.6285°W
Report Text: KGFL 281106Z AUTO 13003KT 6SM BR SCT019 OVC048 M05/M06 A3007 RMK AO2 T10501061
Loading
Personal Weather Stations






























Interactive Weather Map New forecast layout! Learn more

10-Day Weather Forecast

Advertisements
Track Severe Weather on mobile